Time;durP1;ratioP1;P1;durP2;ratioP2;P2;SDS_P1;SDS_P2;PMS_P1;PMS_P2;Temp;Humidity;BMP_temperature;BMP_pressure;BME280_temperature;BME280_humidity;BME280_pressure;Samples;Min_cycle;Max_cycle;Signal;HPM_P1;HPM_P2
2023/05/02 00:00:39;;;;;;;4.13;3.72;;;;;;;;;;5038098;28;20056;-58
2023/05/02 00:03:06;;;;;;;4.43;3.50;;;;;;;;;;5036785;28;20033;-58
2023/05/02 00:05:33;;;;;;;4.53;3.97;;;;;;;;;;5038615;28;20037;-58
2023/05/02 00:07:59;;;;;;;4.88;4.00;;;;;;;;;;5046001;28;20040;-58
2023/05/02 00:10:26;;;;;;;6.28;3.83;;;;;;;;;;5035099;28;20364;-57
2023/05/02 00:12:52;;;;;;;9.75;3.95;;;;;;;;;;5038808;28;20049;-57
2023/05/02 00:15:18;;;;;;;6.30;3.90;;;;;;;;;;5040281;28;20044;-57
2023/05/02 00:17:45;;;;;;;5.07;3.88;;;;;;;;;;5036161;28;20052;-57
2023/05/02 00:20:11;;;;;;;4.35;3.75;;;;;;;;;;5039083;28;20030;-58
2023/05/02 00:22:38;;;;;;;7.78;4.60;;;;;;;;;;5039237;28;20040;-56
2023/05/02 00:25:05;;;;;;;4.60;3.95;;;;;;;;;;5038875;28;20053;-57
2023/05/02 00:27:32;;;;;;;5.93;3.90;;;;;;;;;;5037942;28;20033;-57
2023/05/02 00:29:59;;;;;;;6.25;4.20;;;;;;;;;;5014451;28;20404;-56
2023/05/02 00:32:26;;;;;;;4.80;4.30;;;;;;;;;;5040892;28;20540;-57
2023/05/02 00:34:52;;;;;;;6.72;4.57;;;;;;;;;;5034264;28;20040;-57
2023/05/02 00:37:19;;;;;;;5.15;4.10;;;;;;;;;;5034166;28;20055;-57
2023/05/02 00:39:45;;;;;;;5.25;4.35;;;;;;;;;;5020034;28;20029;-58
2023/05/02 00:42:11;;;;;;;4.93;4.07;;;;;;;;;;5038881;28;20524;-57
2023/05/02 00:44:39;;;;;;;5.95;4.68;;;;;;;;;;5041543;28;20029;-57
2023/05/02 00:47:05;;;;;;;6.30;4.28;;;;;;;;;;5046139;28;20040;-57
2023/05/02 00:49:32;;;;;;;6.88;4.15;;;;;;;;;;5041780;28;20033;-57
2023/05/02 00:51:58;;;;;;;5.32;4.13;;;;;;;;;;5039828;28;20036;-57
2023/05/02 00:54:24;;;;;;;4.95;4.45;;;;;;;;;;5038026;28;20503;-57
2023/05/02 00:56:50;;;;;;;5.90;4.70;;;;;;;;;;5037225;28;20083;-58
2023/05/02 00:59:17;;;;;;;7.15;4.28;;;;;;;;;;5043687;28;20053;-57
2023/05/02 01:01:43;;;;;;;5.95;4.80;;;;;;;;;;5040342;28;20033;-57
2023/05/02 01:04:21;;;;;;;6.18;4.82;;;;;;;;;;5047438;28;20041;-57
2023/05/02 01:07:06;;;;;;;5.65;4.30;;;;;;;;;;5040438;28;20033;-57
2023/05/02 01:10:02;;;;;;;4.95;4.43;;;;;;;;;;5038013;28;20384;-58
2023/05/02 01:13:04;;;;;;;6.72;5.05;;;;;;;;;;5046894;28;20411;-57
2023/05/02 01:15:32;;;;;;;5.82;4.47;;;;;;;;;;5042424;28;20041;-57
2023/05/02 01:18:00;;;;;;;8.38;4.60;;;;;;;;;;5038896;28;20568;-58
2023/05/02 01:20:28;;;;;;;6.78;4.70;;;;;;;;;;5035759;28;20025;-56
2023/05/02 01:22:59;;;;;;;6.28;4.38;;;;;;;;;;5045588;28;20041;-56
2023/05/02 01:25:37;;;;;;;7.20;4.90;;;;;;;;;;5043918;28;20048;-57
2023/05/02 01:28:22;;;;;;;7.75;4.55;;;;;;;;;;5041924;28;20040;-57
2023/05/02 01:30:51;;;;;;;6.78;4.60;;;;;;;;;;5037964;28;20042;-58
2023/05/02 01:33:19;;;;;;;6.55;5.10;;;;;;;;;;5044068;28;20054;-58
2023/05/02 01:35:49;;;;;;;8.02;5.40;;;;;;;;;;5044784;28;20421;-57
2023/05/02 01:38:17;;;;;;;7.60;5.07;;;;;;;;;;5042745;28;20033;-57
2023/05/02 01:40:46;;;;;;;5.82;4.95;;;;;;;;;;5036071;28;20040;-58
2023/05/02 01:43:14;;;;;;;6.40;4.72;;;;;;;;;;5040800;28;20109;-58
2023/05/02 01:45:44;;;;;;;6.28;4.80;;;;;;;;;;5042169;28;20046;-58
2023/05/02 01:48:11;;;;;;;7.70;5.43;;;;;;;;;;5042775;28;20041;-57
2023/05/02 01:50:40;;;;;;;8.23;5.40;;;;;;;;;;5044380;28;20391;-57
2023/05/02 01:53:10;;;;;;;7.18;5.40;;;;;;;;;;5041086;28;20041;-57
2023/05/02 01:55:38;;;;;;;9.60;5.50;;;;;;;;;;5041003;28;20040;-57
2023/05/02 01:58:06;;;;;;;11.15;5.88;;;;;;;;;;5043969;28;20056;-58
2023/05/02 02:00:33;;;;;;;7.22;5.32;;;;;;;;;;5037357;28;20033;-57
2023/05/02 02:03:00;;;;;;;8.68;5.60;;;;;;;;;;5040704;28;20032;-57
2023/05/02 02:05:27;;;;;;;7.47;5.57;;;;;;;;;;5043125;28;20041;-57
2023/05/02 02:07:53;;;;;;;8.00;5.80;;;;;;;;;;5035725;28;20034;-56
2023/05/02 02:10:21;;;;;;;7.88;5.93;;;;;;;;;;5039359;28;20041;-57
2023/05/02 02:12:52;;;;;;;9.35;5.82;;;;;;;;;;5041333;28;20032;-57
2023/05/02 02:15:38;;;;;;;9.68;6.28;;;;;;;;;;5045553;28;20037;-57
2023/05/02 02:18:10;;;;;;;8.27;6.57;;;;;;;;;;5038974;28;20037;-57
2023/05/02 02:20:39;;;;;;;11.48;5.90;;;;;;;;;;5043039;28;20025;-57
2023/05/02 02:23:07;;;;;;;7.75;6.25;;;;;;;;;;5043039;28;20063;-57
2023/05/02 02:25:35;;;;;;;8.80;6.25;;;;;;;;;;5043377;28;20052;-57
2023/05/02 02:28:01;;;;;;;8.80;6.43;;;;;;;;;;5047115;28;20037;-56
2023/05/02 02:30:27;;;;;;;9.73;6.57;;;;;;;;;;5046735;28;20033;-57
2023/05/02 02:32:53;;;;;;;9.07;6.55;;;;;;;;;;5048434;28;20068;-57
2023/05/02 02:35:20;;;;;;;10.10;6.18;;;;;;;;;;5045388;28;20032;-57
2023/05/02 02:37:56;;;;;;;11.15;6.75;;;;;;;;;;5037481;28;20218;-57
2023/05/02 02:40:28;;;;;;;9.95;6.30;;;;;;;;;;5039737;28;20025;-57
2023/05/02 02:43:02;;;;;;;10.60;7.13;;;;;;;;;;5037885;28;20037;-56
2023/05/02 02:45:31;;;;;;;8.90;6.43;;;;;;;;;;5046583;28;20033;-57
2023/05/02 02:48:06;;;;;;;10.77;6.70;;;;;;;;;;5030393;28;20046;-57
2023/05/02 02:50:41;;;;;;;9.57;7.13;;;;;;;;;;5041786;28;20037;-57
2023/05/02 02:53:11;;;;;;;11.85;7.25;;;;;;;;;;5043604;28;20430;-57
2023/05/02 02:55:56;;;;;;;12.48;7.30;;;;;;;;;;5039020;28;20029;-57
2023/05/02 02:58:41;;;;;;;10.30;7.22;;;;;;;;;;5041538;28;20045;-57
2023/05/02 03:01:13;;;;;;;11.27;7.30;;;;;;;;;;5037256;28;20068;-58
2023/05/02 03:03:42;;;;;;;10.70;7.07;;;;;;;;;;5041742;28;20047;-57
2023/05/02 03:06:08;;;;;;;12.20;7.70;;;;;;;;;;5040887;28;20041;-57
2023/05/02 03:08:42;;;;;;;10.10;7.43;;;;;;;;;;5037373;28;20040;-57
2023/05/02 03:11:12;;;;;;;11.40;7.13;;;;;;;;;;5040304;28;20048;-56
2023/05/02 03:13:39;;;;;;;11.48;7.25;;;;;;;;;;5040517;28;20041;-57
2023/05/02 03:16:27;;;;;;;11.10;6.70;;;;;;;;;;5038354;28;20032;-57
2023/05/02 03:18:54;;;;;;;9.95;6.82;;;;;;;;;;5039782;28;20412;-57
2023/05/02 03:21:20;;;;;;;8.70;6.50;;;;;;;;;;5033195;28;20047;-58
2023/05/02 03:23:46;;;;;;;11.65;6.90;;;;;;;;;;5039144;28;20045;-57
2023/05/02 03:26:13;;;;;;;13.00;8.02;;;;;;;;;;5041948;28;20037;-57
2023/05/02 03:28:40;;;;;;;12.73;7.80;;;;;;;;;;5035949;28;20033;-57
2023/05/02 03:31:06;;;;;;;16.00;7.78;;;;;;;;;;5038258;28;20033;-57
2023/05/02 03:33:36;;;;;;;10.93;6.60;;;;;;;;;;5040592;28;20041;-57
2023/05/02 03:36:02;;;;;;;10.45;7.30;;;;;;;;;;5043345;28;20036;-58
2023/05/02 03:38:29;;;;;;;9.65;6.57;;;;;;;;;;5044117;28;20238;-57
2023/05/02 03:40:58;;;;;;;12.10;7.20;;;;;;;;;;5037440;28;20045;-57
2023/05/02 03:43:25;;;;;;;11.88;6.65;;;;;;;;;;5033699;28;20041;-57
2023/05/02 03:45:52;;;;;;;10.57;7.47;;;;;;;;;;5036032;28;20044;-57
2023/05/02 03:48:19;;;;;;;12.40;7.78;;;;;;;;;;5038784;28;20044;-57
2023/05/02 03:50:45;;;;;;;12.13;7.50;;;;;;;;;;5043515;28;20407;-58
2023/05/02 03:53:11;;;;;;;11.35;7.65;;;;;;;;;;5042630;28;20376;-57
2023/05/02 03:55:46;;;;;;;14.45;7.78;;;;;;;;;;5047428;28;20116;-57
2023/05/02 03:58:22;;;;;;;10.98;7.25;;;;;;;;;;5046624;28;20037;-57
2023/05/02 04:00:48;;;;;;;9.95;7.28;;;;;;;;;;5039815;28;20056;-57
2023/05/02 04:03:15;;;;;;;13.82;7.68;;;;;;;;;;5039896;28;20045;-57
2023/05/02 04:05:44;;;;;;;12.38;8.20;;;;;;;;;;5037192;28;20049;-57
2023/05/02 04:08:12;;;;;;;27.83;12.52;;;;;;;;;;5036514;28;20057;-57
2023/05/02 04:10:39;;;;;;;24.25;13.27;;;;;;;;;;5037467;28;20025;-57
2023/05/02 04:13:08;;;;;;;19.52;11.48;;;;;;;;;;5045735;28;20406;-57
2023/05/02 04:15:37;;;;;;;17.35;10.98;;;;;;;;;;5034330;28;20049;-59
2023/05/02 04:18:04;;;;;;;16.92;10.77;;;;;;;;;;5049011;28;20032;-57
2023/05/02 04:20:30;;;;;;;16.15;8.65;;;;;;;;;;5042376;28;20036;-58
2023/05/02 04:22:57;;;;;;;15.88;8.90;;;;;;;;;;5042196;28;20045;-57
2023/05/02 04:25:23;;;;;;;12.05;8.30;;;;;;;;;;5045104;28;20041;-58
2023/05/02 04:27:52;;;;;;;11.97;8.33;;;;;;;;;;5045808;28;20045;-58
2023/05/02 04:30:21;;;;;;;12.53;8.53;;;;;;;;;;5040926;28;20306;-58
2023/05/02 04:32:57;;;;;;;12.30;8.02;;;;;;;;;;5044382;28;20283;-57
2023/05/02 04:35:25;;;;;;;13.82;8.45;;;;;;;;;;5045805;28;20036;-58
2023/05/02 04:37:52;;;;;;;14.27;8.27;;;;;;;;;;5045507;28;20036;-57
2023/05/02 04:40:18;;;;;;;12.88;8.63;;;;;;;;;;5044854;28;20045;-57
2023/05/02 04:42:48;;;;;;;12.75;9.05;;;;;;;;;;5044619;28;20036;-58
2023/05/02 04:45:18;;;;;;;14.90;8.48;;;;;;;;;;5029102;28;20044;-56
2023/05/02 04:47:45;;;;;;;12.05;8.02;;;;;;;;;;5047756;28;20029;-57
2023/05/02 04:50:11;;;;;;;13.00;8.70;;;;;;;;;;5046999;28;20055;-57
2023/05/02 04:52:37;;;;;;;15.25;9.10;;;;;;;;;;5045400;28;20049;-58
2023/05/02 04:55:04;;;;;;;17.25;9.98;;;;;;;;;;5026424;28;20048;-58
2023/05/02 04:57:31;;;;;;;12.77;8.50;;;;;;;;;;5045504;28;20053;-58
2023/05/02 04:59:59;;;;;;;12.93;9.15;;;;;;;;;;5041297;28;20040;-58
2023/05/02 05:02:26;;;;;;;13.75;9.00;;;;;;;;;;5046028;28;20048;-57
2023/05/02 05:04:53;;;;;;;13.73;9.05;;;;;;;;;;5040917;28;20029;-58
2023/05/02 05:07:20;;;;;;;12.52;9.40;;;;;;;;;;5048230;28;20414;-57
2023/05/02 05:09:48;;;;;;;16.55;10.30;;;;;;;;;;5041407;28;20565;-57
2023/05/02 05:12:14;;;;;;;17.77;10.32;;;;;;;;;;5048323;28;20049;-59
2023/05/02 05:14:41;;;;;;;13.95;9.80;;;;;;;;;;5042853;28;20050;-59
2023/05/02 05:17:07;;;;;;;15.05;9.60;;;;;;;;;;5039899;28;20041;-59
2023/05/02 05:19:34;;;;;;;16.38;9.77;;;;;;;;;;5033260;28;20040;-57
2023/05/02 05:22:00;;;;;;;16.45;10.35;;;;;;;;;;5053309;28;20040;-58
2023/05/02 05:24:27;;;;;;;14.85;10.18;;;;;;;;;;5048850;28;20037;-57
2023/05/02 05:26:55;;;;;;;14.80;10.32;;;;;;;;;;5052157;28;20498;-57
2023/05/02 05:29:21;;;;;;;15.13;10.57;;;;;;;;;;5046446;28;20037;-57
2023/05/02 05:31:48;;;;;;;19.70;12.20;;;;;;;;;;5048869;28;20045;-57
2023/05/02 05:34:17;;;;;;;16.85;11.25;;;;;;;;;;5046128;28;20045;-57
2023/05/02 05:36:45;;;;;;;15.98;11.10;;;;;;;;;;5047409;28;20036;-58
2023/05/02 05:39:12;;;;;;;15.57;10.95;;;;;;;;;;5029602;28;20403;-58
2023/05/02 05:41:40;;;;;;;14.23;10.17;;;;;;;;;;5045931;28;20414;-58
2023/05/02 05:44:09;;;;;;;14.90;10.50;;;;;;;;;;5043901;28;20284;-58
2023/05/02 05:46:35;;;;;;;15.43;11.02;;;;;;;;;;5047059;28;20414;-57
2023/05/02 05:49:03;;;;;;;17.23;11.38;;;;;;;;;;5037629;28;20402;-58
2023/05/02 05:51:30;;;;;;;17.73;11.18;;;;;;;;;;5044444;28;20037;-57
2023/05/02 05:53:58;;;;;;;15.60;11.00;;;;;;;;;;5041072;28;20049;-58
2023/05/02 05:56:25;;;;;;;18.25;11.27;;;;;;;;;;5049729;28;20124;-57
2023/05/02 05:58:58;;;;;;;16.77;10.85;;;;;;;;;;5041722;28;20410;-57
2023/05/02 06:01:24;;;;;;;15.35;10.52;;;;;;;;;;5043941;28;20487;-58
2023/05/02 06:03:51;;;;;;;15.25;10.68;;;;;;;;;;5038921;28;20029;-56
2023/05/02 06:06:18;;;;;;;16.88;11.15;;;;;;;;;;5042268;28;20603;-57
2023/05/02 06:08:44;;;;;;;17.38;12.07;;;;;;;;;;5042543;28;20049;-58
2023/05/02 06:11:10;;;;;;;15.40;11.55;;;;;;;;;;5043649;28;20044;-57
2023/05/02 06:13:37;;;;;;;18.35;11.90;;;;;;;;;;5040665;28;20048;-58
2023/05/02 06:16:04;;;;;;;17.08;10.75;;;;;;;;;;5039839;28;20373;-57
2023/05/02 06:18:31;;;;;;;19.02;11.13;;;;;;;;;;5042300;28;20048;-58
2023/05/02 06:20:57;;;;;;;14.38;10.88;;;;;;;;;;5047873;28;20040;-57
2023/05/02 06:23:23;;;;;;;17.17;11.38;;;;;;;;;;5033542;28;20033;-58
2023/05/02 06:25:50;;;;;;;18.05;11.15;;;;;;;;;;5048057;28;20033;-58
2023/05/02 06:28:16;;;;;;;15.80;11.30;;;;;;;;;;5048247;28;20045;-58
2023/05/02 06:30:42;;;;;;;17.23;11.07;;;;;;;;;;5043987;28;20060;-58
2023/05/02 06:33:08;;;;;;;14.13;10.35;;;;;;;;;;5047995;28;20033;-58
2023/05/02 06:35:34;;;;;;;18.60;11.65;;;;;;;;;;5047513;28;20049;-58
2023/05/02 06:38:00;;;;;;;22.40;14.32;;;;;;;;;;5047194;28;20044;-58
2023/05/02 06:40:27;;;;;;;17.33;11.75;;;;;;;;;;5043999;28;20400;-58
2023/05/02 06:42:53;;;;;;;17.45;11.10;;;;;;;;;;5043585;28;20045;-58
2023/05/02 06:45:19;;;;;;;17.88;12.00;;;;;;;;;;5043799;28;20028;-58
2023/05/02 06:47:45;;;;;;;16.10;11.18;;;;;;;;;;5041213;28;20033;-58
2023/05/02 06:50:11;;;;;;;14.32;10.70;;;;;;;;;;5048616;28;20514;-57
2023/05/02 06:52:38;;;;;;;14.15;10.15;;;;;;;;;;5042746;28;20048;-57
2023/05/02 06:55:04;;;;;;;14.82;10.32;;;;;;;;;;5041445;28;20053;-57
2023/05/02 06:57:30;;;;;;;16.45;11.60;;;;;;;;;;5042813;28;20033;-58
2023/05/02 06:59:57;;;;;;;17.40;10.70;;;;;;;;;;5039959;28;20040;-59
2023/05/02 07:02:23;;;;;;;16.05;10.60;;;;;;;;;;5044057;28;20020;-56
2023/05/02 07:04:49;;;;;;;16.58;11.05;;;;;;;;;;5039440;28;20384;-57
2023/05/02 07:07:17;;;;;;;17.80;10.75;;;;;;;;;;5041419;28;20480;-58
2023/05/02 07:09:44;;;;;;;15.68;10.75;;;;;;;;;;5043147;28;20422;-57
2023/05/02 07:12:10;;;;;;;14.88;10.95;;;;;;;;;;5044380;28;20029;-58
2023/05/02 07:14:37;;;;;;;16.25;11.25;;;;;;;;;;5039006;28;20033;-57
2023/05/02 07:17:03;;;;;;;15.35;10.95;;;;;;;;;;5046030;28;20053;-57
2023/05/02 07:19:29;;;;;;;14.68;10.93;;;;;;;;;;5046295;28;20036;-58
2023/05/02 07:21:55;;;;;;;17.70;11.25;;;;;;;;;;5045602;28;20394;-57
2023/05/02 07:24:21;;;;;;;16.65;11.00;;;;;;;;;;5047650;28;20108;-57
2023/05/02 07:26:48;;;;;;;18.30;11.98;;;;;;;;;;5042931;28;20052;-57
2023/05/02 07:29:14;;;;;;;16.52;10.90;;;;;;;;;;5047516;28;20367;-57
2023/05/02 07:31:40;;;;;;;16.75;10.43;;;;;;;;;;5045913;28;20364;-57
2023/05/02 07:34:06;;;;;;;17.38;11.35;;;;;;;;;;5045995;28;20045;-57
2023/05/02 07:36:32;;;;;;;18.52;11.90;;;;;;;;;;5045470;28;20048;-57
2023/05/02 07:38:58;;;;;;;16.58;11.95;;;;;;;;;;5044876;28;20041;-58
2023/05/02 07:41:25;;;;;;;18.88;12.07;;;;;;;;;;5044250;28;20054;-57
2023/05/02 07:43:51;;;;;;;18.08;12.43;;;;;;;;;;5041627;28;20029;-57
2023/05/02 07:46:17;;;;;;;18.40;11.55;;;;;;;;;;5044566;28;20033;-57
2023/05/02 07:48:43;;;;;;;18.90;11.88;;;;;;;;;;5044357;28;20052;-57
2023/05/02 07:51:09;;;;;;;26.67;16.48;;;;;;;;;;5042280;28;20044;-57
2023/05/02 07:53:36;;;;;;;27.38;16.55;;;;;;;;;;5040936;28;20509;-57
2023/05/02 07:56:03;;;;;;;23.23;15.10;;;;;;;;;;5040222;28;20041;-57
2023/05/02 07:58:30;;;;;;;19.60;13.13;;;;;;;;;;5042108;28;20044;-57
2023/05/02 08:00:56;;;;;;;17.90;12.50;;;;;;;;;;5042402;28;20035;-58
2023/05/02 08:03:22;;;;;;;19.25;13.23;;;;;;;;;;5040347;28;20390;-57
2023/05/02 08:05:48;;;;;;;19.10;12.88;;;;;;;;;;5039497;28;20040;-58
2023/05/02 08:08:15;;;;;;;18.75;13.02;;;;;;;;;;5039994;28;20042;-58
2023/05/02 08:10:41;;;;;;;24.77;15.63;;;;;;;;;;5040217;28;20032;-57
2023/05/02 08:13:07;;;;;;;23.88;14.93;;;;;;;;;;5042362;28;20037;-57
2023/05/02 08:15:33;;;;;;;20.63;14.02;;;;;;;;;;5041518;28;20049;-58
2023/05/02 08:18:00;;;;;;;19.83;12.63;;;;;;;;;;5048282;28;20479;-57
2023/05/02 08:20:26;;;;;;;18.30;12.82;;;;;;;;;;5043320;28;20399;-58
2023/05/02 08:22:52;;;;;;;20.35;12.65;;;;;;;;;;5047977;28;20056;-58
2023/05/02 08:25:18;;;;;;;19.75;13.27;;;;;;;;;;5046987;28;20051;-58
2023/05/02 08:27:44;;;;;;;20.23;13.23;;;;;;;;;;5046629;28;20041;-58
2023/05/02 08:30:11;;;;;;;18.92;12.73;;;;;;;;;;5045294;28;20033;-58
2023/05/02 08:32:38;;;;;;;23.17;14.30;;;;;;;;;;5045800;28;20052;-57
2023/05/02 08:35:05;;;;;;;20.50;13.32;;;;;;;;;;5039610;28;20048;-57
2023/05/02 08:37:31;;;;;;;20.35;13.90;;;;;;;;;;5039176;28;20401;-57
2023/05/02 08:39:58;;;;;;;19.83;14.13;;;;;;;;;;5044642;28;20048;-58
2023/05/02 08:42:25;;;;;;;21.90;14.55;;;;;;;;;;5044875;28;20457;-57
2023/05/02 08:44:51;;;;;;;19.90;14.07;;;;;;;;;;5040994;28;20042;-57
2023/05/02 08:47:18;;;;;;;22.88;15.00;;;;;;;;;;5040607;28;20049;-58
2023/05/02 08:49:45;;;;;;;23.83;15.32;;;;;;;;;;5042840;28;20124;-58
2023/05/02 08:52:13;;;;;;;26.98;16.92;;;;;;;;;;5042266;28;20057;-57
2023/05/02 08:54:40;;;;;;;24.88;16.25;;;;;;;;;;5040094;28;20038;-58
2023/05/02 08:57:06;;;;;;;24.90;16.02;;;;;;;;;;5040177;28;20050;-57
2023/05/02 08:59:33;;;;;;;27.08;16.80;;;;;;;;;;5042617;28;20433;-57
2023/05/02 09:02:09;;;;;;;26.95;17.25;;;;;;;;;;5041121;28;20040;-57
2023/05/02 09:04:40;;;;;;;30.83;18.70;;;;;;;;;;5038895;28;20052;-57
2023/05/02 09:07:06;;;;;;;24.95;16.45;;;;;;;;;;5048956;28;20124;-57
2023/05/02 09:09:33;;;;;;;26.08;16.27;;;;;;;;;;5043364;28;20035;-58
2023/05/02 09:12:00;;;;;;;26.50;15.82;;;;;;;;;;5047518;28;20028;-57
2023/05/02 09:14:27;;;;;;;25.05;16.38;;;;;;;;;;5044827;28;20495;-58
2023/05/02 09:16:58;;;;;;;23.23;15.45;;;;;;;;;;5049262;28;20040;-57
2023/05/02 09:19:25;;;;;;;23.55;15.27;;;;;;;;;;5049249;28;20052;-57
2023/05/02 09:21:59;;;;;;;23.50;16.88;;;;;;;;;;5046832;28;20045;-58
2023/05/02 09:24:25;;;;;;;11.13;7.28;;;;;;;;;;5041272;28;20048;-57
2023/05/02 09:27:01;;;;;;;22.88;15.25;;;;;;;;;;5049564;28;20048;-57
2023/05/02 09:29:34;;;;;;;27.05;17.50;;;;;;;;;;5046303;28;20375;-58
2023/05/02 09:32:02;;;;;;;29.40;18.02;;;;;;;;;;5046189;28;20045;-58
2023/05/02 09:34:29;;;;;;;24.40;17.58;;;;;;;;;;5047154;28;20051;-58
2023/05/02 09:36:57;;;;;;;26.40;17.38;;;;;;;;;;5048203;28;20033;-57
2023/05/02 09:39:25;;;;;;;28.15;17.33;;;;;;;;;;5048655;28;20045;-58
2023/05/02 09:41:51;;;;;;;27.10;18.23;;;;;;;;;;5044503;28;20033;-57
2023/05/02 09:44:20;;;;;;;25.80;17.02;;;;;;;;;;5046276;28;20037;-58
2023/05/02 09:46:48;;;;;;;25.27;17.48;;;;;;;;;;5046976;28;20442;-58
2023/05/02 09:49:17;;;;;;;27.48;17.27;;;;;;;;;;5048206;28;20056;-58
2023/05/02 09:51:47;;;;;;;25.75;17.38;;;;;;;;;;5042596;28;20033;-57
2023/05/02 09:54:35;;;;;;;27.02;18.45;;;;;;;;;;5043854;28;20056;-58
2023/05/02 09:57:01;;;;;;;23.65;16.88;;;;;;;;;;5041011;28;20036;-58
2023/05/02 09:59:28;;;;;;;28.45;18.52;;;;;;;;;;5047539;28;20044;-57
2023/05/02 10:01:56;;;;;;;26.25;17.92;;;;;;;;;;5050149;28;20033;-58
2023/05/02 10:04:23;;;;;;;28.17;18.75;;;;;;;;;;5043526;28;20044;-58
2023/05/02 10:06:50;;;;;;;27.80;16.95;;;;;;;;;;5049199;28;20041;-57
2023/05/02 10:09:19;;;;;;;32.60;19.27;;;;;;;;;;5040853;28;20063;-58
2023/05/02 10:11:48;;;;;;;25.95;19.10;;;;;;;;;;5040770;28;20068;-59
2023/05/02 10:14:15;;;;;;;26.40;18.60;;;;;;;;;;5047587;28;20032;-58
2023/05/02 10:17:11;;;;;;;23.92;17.60;;;;;;;;;;5049717;28;20049;-58
2023/05/02 10:19:58;;;;;;;23.45;17.42;;;;;;;;;;5042562;28;20024;-58
2023/05/02 10:22:25;;;;;;;23.95;16.70;;;;;;;;;;5052011;28;20033;-58
2023/05/02 10:24:52;;;;;;;25.70;17.88;;;;;;;;;;5047991;28;20064;-58
2023/05/02 10:27:18;;;;;;;25.92;17.77;;;;;;;;;;5047067;28;20056;-58
2023/05/02 10:29:45;;;;;;;24.35;17.60;;;;;;;;;;5043454;28;20041;-58
2023/05/02 10:32:14;;;;;;;24.42;17.35;;;;;;;;;;5044358;28;20029;-57
2023/05/02 10:34:41;;;;;;;24.52;15.82;;;;;;;;;;5046681;28;20035;-58
2023/05/02 10:37:07;;;;;;;22.92;15.82;;;;;;;;;;5042344;28;20407;-58
2023/05/02 10:39:33;;;;;;;23.55;16.52;;;;;;;;;;5045962;28;20033;-58
2023/05/02 10:42:02;;;;;;;22.13;15.65;;;;;;;;;;5041870;28;20491;-58
2023/05/02 10:44:35;;;;;;;21.23;15.07;;;;;;;;;;5037644;28;20029;-58
2023/05/02 10:47:20;;;;;;;20.45;15.50;;;;;;;;;;5041088;28;20037;-59
2023/05/02 10:49:55;;;;;;;21.88;15.57;;;;;;;;;;5045156;28;20041;-59
2023/05/02 10:52:36;;;;;;;22.90;16.10;;;;;;;;;;5044184;28;20124;-58
2023/05/02 10:55:12;;;;;;;21.25;15.40;;;;;;;;;;5038313;28;20052;-58
2023/05/02 10:57:56;;;;;;;19.77;14.57;;;;;;;;;;5043708;28;20033;-58
2023/05/02 11:00:32;;;;;;;21.65;15.48;;;;;;;;;;5044818;28;20413;-58
2023/05/02 11:02:59;;;;;;;20.52;15.00;;;;;;;;;;5039389;28;20033;-58
2023/05/02 11:05:26;;;;;;;20.17;14.63;;;;;;;;;;5042514;28;20039;-58
2023/05/02 11:08:15;;;;;;;20.33;14.73;;;;;;;;;;5041102;28;20037;-58
2023/05/02 11:10:41;;;;;;;17.52;14.07;;;;;;;;;;5038796;28;20040;-59
2023/05/02 11:13:07;;;;;;;17.80;14.38;;;;;;;;;;5047866;28;20056;-59
2023/05/02 11:15:39;;;;;;;17.17;13.38;;;;;;;;;;5045089;28;20072;-58
2023/05/02 11:18:11;;;;;;;17.55;14.02;;;;;;;;;;5038987;28;20040;-58
2023/05/02 11:20:44;;;;;;;21.40;15.07;;;;;;;;;;5047535;28;20036;-58
2023/05/02 11:23:14;;;;;;;21.42;15.55;;;;;;;;;;5048015;28;20052;-57
2023/05/02 11:25:53;;;;;;;18.17;13.13;;;;;;;;;;5046922;28;20025;-60
2023/05/02 11:28:38;;;;;;;;;;;;;;;;;;5046840;28;20134;-58
2023/05/02 11:31:05;;;;;;;18.60;14.05;;;;;;;;;;5045641;28;19913;-58
2023/05/02 11:33:31;;;;;;;17.85;13.27;;;;;;;;;;5044372;28;20040;-58
2023/05/02 11:35:58;;;;;;;20.10;15.57;;;;;;;;;;5040376;28;20041;-58
2023/05/02 11:38:26;;;;;;;18.08;15.25;;;;;;;;;;5044746;28;20043;-58
2023/05/02 11:40:55;;;;;;;22.38;14.27;;;;;;;;;;5043260;28;20036;-58
2023/05/02 11:43:23;;;;;;;17.15;13.55;;;;;;;;;;5044912;28;20383;-58
2023/05/02 11:45:50;;;;;;;16.90;13.65;;;;;;;;;;5044125;28;20033;-58
2023/05/02 11:48:19;;;;;;;16.67;13.18;;;;;;;;;;5040313;28;20068;-58
2023/05/02 11:50:48;;;;;;;19.00;14.45;;;;;;;;;;5043040;28;20039;-59
2023/05/02 11:53:16;;;;;;;17.85;13.90;;;;;;;;;;5047054;28;20047;-58
2023/05/02 11:55:48;;;;;;;14.65;11.85;;;;;;;;;;5039562;28;20045;-58
2023/05/02 11:58:19;;;;;;;15.75;12.98;;;;;;;;;;5041055;28;20037;-58
2023/05/02 12:00:46;;;;;;;16.40;13.25;;;;;;;;;;5046992;28;20039;-59
2023/05/02 12:03:30;;;;;;;10.20;8.77;;;;;;;;;;5041822;28;20059;-59
2023/05/02 12:06:07;;;;;;;17.10;13.40;;;;;;;;;;5038127;28;20030;-59
2023/05/02 12:08:33;;;;;;;16.63;12.70;;;;;;;;;;5039034;28;20691;-58
2023/05/02 12:10:59;;;;;;;17.52;12.65;;;;;;;;;;5034396;28;20689;-59
2023/05/02 12:13:25;;;;;;;16.92;13.18;;;;;;;;;;5045706;28;20548;-59
2023/05/02 12:15:53;;;;;;;13.70;11.20;;;;;;;;;;5042317;28;20049;-59
2023/05/02 12:18:22;;;;;;;18.90;12.75;;;;;;;;;;5044241;28;20100;-59
2023/05/02 12:20:50;;;;;;;16.33;13.82;;;;;;;;;;5045174;28;20040;-59
2023/05/02 12:23:19;;;;;;;17.10;13.00;;;;;;;;;;5044755;28;20044;-59
2023/05/02 12:25:45;;;;;;;13.90;11.05;;;;;;;;;;5049093;28;20040;-59
2023/05/02 12:28:12;;;;;;;16.85;13.05;;;;;;;;;;5043745;28;20053;-60
2023/05/02 12:30:41;;;;;;;17.65;13.90;;;;;;;;;;5042308;28;20044;-60
2023/05/02 12:33:08;;;;;;;18.92;13.95;;;;;;;;;;5040356;28;20535;-59
2023/05/02 12:35:35;;;;;;;16.67;12.60;;;;;;;;;;5043771;28;20095;-60
2023/05/02 12:38:11;;;;;;;15.82;12.40;;;;;;;;;;5042296;28;20033;-60
2023/05/02 12:40:44;;;;;;;20.13;15.23;;;;;;;;;;5041113;28;20041;-59
2023/05/02 12:43:10;;;;;;;16.05;12.30;;;;;;;;;;5055176;28;20032;-59
2023/05/02 12:45:37;;;;;;;15.23;13.20;;;;;;;;;;5047753;28;20052;-61
2023/05/02 12:48:26;;;;;;;20.23;13.82;;;;;;;;;;5045054;28;20066;-60
2023/05/02 12:50:53;;;;;;;;;;;;;;;;;;5042258;28;20037;-60
2023/05/02 12:53:42;;;;;;;16.42;13.57;;;;;;;;;;5044820;28;19917;-59
2023/05/02 12:56:09;;;;;;;;;;;;;;;;;;5045476;28;20405;-58
2023/05/02 12:58:45;;;;;;;19.80;14.23;;;;;;;;;;5033068;28;19913;-58
2023/05/02 13:01:13;;;;;;;18.35;13.55;;;;;;;;;;5045358;28;20041;-58
2023/05/02 13:03:40;;;;;;;15.43;12.07;;;;;;;;;;5051111;28;20045;-58
2023/05/02 13:06:06;;;;;;;15.35;11.68;;;;;;;;;;5043551;28;20380;-61
2023/05/02 13:08:33;;;;;;;15.40;12.25;;;;;;;;;;5040110;28;20033;-59
2023/05/02 13:11:01;;;;;;;15.52;11.93;;;;;;;;;;5044463;28;20040;-62
2023/05/02 13:13:28;;;;;;;14.38;12.05;;;;;;;;;;5050286;28;20029;-62
2023/05/02 13:15:55;;;;;;;16.45;12.40;;;;;;;;;;5049867;28;20053;-61
2023/05/02 13:18:21;;;;;;;15.73;12.23;;;;;;;;;;5050140;28;20391;-61
2023/05/02 13:20:47;;;;;;;19.30;13.50;;;;;;;;;;5052847;28;20402;-61
2023/05/02 13:23:15;;;;;;;14.80;12.43;;;;;;;;;;5047071;28;20487;-61
2023/05/02 13:25:42;;;;;;;17.67;11.13;;;;;;;;;;5048204;28;20045;-61
2023/05/02 13:28:08;;;;;;;17.08;12.60;;;;;;;;;;5046780;28;20057;-61
2023/05/02 13:30:34;;;;;;;17.42;14.07;;;;;;;;;;5050733;28;20033;-60
2023/05/02 13:33:00;;;;;;;16.58;13.00;;;;;;;;;;5048334;28;20052;-60
2023/05/02 13:35:26;;;;;;;16.60;12.85;;;;;;;;;;5050582;28;20040;-61
2023/05/02 13:37:52;;;;;;;21.15;13.88;;;;;;;;;;5043506;28;20049;-60
2023/05/02 13:40:19;;;;;;;17.55;13.43;;;;;;;;;;5046294;28;20052;-60
2023/05/02 13:42:45;;;;;;;20.65;13.68;;;;;;;;;;5046258;28;20040;-60
2023/05/02 13:45:12;;;;;;;23.80;16.65;;;;;;;;;;5044209;28;20049;-60
2023/05/02 13:47:38;;;;;;;26.73;17.38;;;;;;;;;;5037912;28;20039;-61
2023/05/02 13:50:04;;;;;;;28.38;18.05;;;;;;;;;;5041702;28;20054;-61
2023/05/02 13:52:30;;;;;;;27.15;18.88;;;;;;;;;;5044730;28;20025;-61
2023/05/02 13:54:57;;;;;;;29.70;19.73;;;;;;;;;;5044013;28;20048;-61
2023/05/02 13:57:23;;;;;;;32.10;20.88;;;;;;;;;;5044414;28;20025;-60
2023/05/02 13:59:50;;;;;;;32.67;20.80;;;;;;;;;;5037709;28;20029;-60
2023/05/02 14:02:16;;;;;;;28.92;19.52;;;;;;;;;;5048827;28;20037;-61
2023/05/02 14:04:42;;;;;;;32.50;19.50;;;;;;;;;;5051475;28;20411;-60
2023/05/02 14:07:08;;;;;;;34.78;20.63;;;;;;;;;;5044550;28;20040;-61
2023/05/02 14:09:35;;;;;;;33.10;20.75;;;;;;;;;;5049630;28;20498;-61
2023/05/02 14:12:01;;;;;;;28.70;18.70;;;;;;;;;;5051101;28;20033;-61
2023/05/02 14:14:27;;;;;;;27.40;17.20;;;;;;;;;;5045880;28;20041;-61
2023/05/02 14:16:54;;;;;;;30.00;18.50;;;;;;;;;;5048440;28;20423;-61
2023/05/02 14:19:20;;;;;;;25.85;16.13;;;;;;;;;;5049508;28;20043;-61
2023/05/02 14:21:47;;;;;;;26.67;17.48;;;;;;;;;;5048902;28;20045;-61
2023/05/02 14:24:15;;;;;;;25.58;17.45;;;;;;;;;;5048532;28;20036;-61
2023/05/02 14:26:41;;;;;;;27.55;17.92;;;;;;;;;;5055559;28;20483;-61
2023/05/02 14:29:08;;;;;;;27.13;16.52;;;;;;;;;;5043466;28;20049;-61
2023/05/02 14:31:34;;;;;;;28.60;16.15;;;;;;;;;;5040644;28;20052;-61
2023/05/02 14:34:00;;;;;;;23.13;15.68;;;;;;;;;;5047508;28;20045;-61